createdAt,value
2023-05-14T00:00:08.673Z,9.28
2023-05-14T00:02:09.005Z,9.04
2023-05-14T00:03:09.359Z,9.12
2023-05-14T00:04:09.088Z,9.12
2023-05-14T00:05:09.165Z,9.12
2023-05-14T00:06:09.256Z,8.639999
2023-05-14T00:07:09.409Z,8.48
2023-05-14T00:08:09.516Z,8.4
2023-05-14T00:09:09.615Z,8.32
2023-05-14T00:10:09.775Z,8.4
2023-05-14T00:11:09.932Z,8.4
2023-05-14T00:12:10.393Z,8.32
2023-05-14T00:13:10.489Z,8.4
2023-05-14T00:14:10.717Z,8.32
2023-05-14T00:15:10.682Z,8.24
2023-05-14T00:16:10.970Z,8.24
2023-05-14T00:17:11.096Z,8.48
2023-05-14T00:18:11.245Z,8.88
2023-05-14T00:19:11.085Z,8.72
2023-05-14T00:20:11.140Z,8.639999
2023-05-14T00:21:11.284Z,8.88
2023-05-14T00:22:11.443Z,9.04
2023-05-14T00:23:11.588Z,9.04
2023-05-14T00:24:11.700Z,8.8
2023-05-14T00:25:11.843Z,8.8
2023-05-14T00:26:11.993Z,8.72
2023-05-14T00:27:12.100Z,8.8
2023-05-14T00:28:12.251Z,8.8
2023-05-14T00:29:12.406Z,8.72
2023-05-14T00:30:12.553Z,8.72
2023-05-14T00:31:12.675Z,8.72
2023-05-14T00:32:12.758Z,8.32
2023-05-14T00:33:12.906Z,8
2023-05-14T00:34:13.008Z,7.84
2023-05-14T00:35:13.165Z,7.68
2023-05-14T00:36:13.316Z,7.84
2023-05-14T00:37:13.464Z,8
2023-05-14T00:38:13.617Z,8.08
2023-05-14T00:39:13.713Z,8.32
2023-05-14T00:40:13.837Z,7.92
2023-05-14T00:41:13.976Z,7.68
2023-05-14T00:42:14.128Z,7.84
2023-05-14T00:43:14.275Z,7.68
2023-05-14T00:44:14.425Z,7.84
2023-05-14T00:45:14.582Z,7.84
2023-05-14T00:46:14.773Z,7.92
2023-05-14T00:47:14.882Z,7.92
2023-05-14T00:48:15.053Z,8.08
2023-05-14T00:49:15.139Z,8.24
2023-05-14T00:50:15.286Z,8.08
2023-05-14T00:51:15.447Z,8.08
2023-05-14T00:52:15.591Z,7.84
2023-05-14T00:53:15.748Z,7.84
2023-05-14T00:54:15.892Z,8.08
2023-05-14T00:55:16.046Z,8.08
2023-05-14T00:56:16.199Z,8.08
2023-05-14T00:57:16.348Z,8.08
2023-05-14T00:58:16.500Z,8.24
2023-05-14T00:59:16.646Z,8.24
2023-05-14T01:00:16.761Z,8.24
2023-05-14T01:01:16.895Z,8.48
2023-05-14T01:02:16.962Z,8.4
2023-05-14T01:03:17.196Z,8.32
2023-05-14T01:04:17.263Z,8.72
2023-05-14T01:05:17.412Z,9.04
2023-05-14T01:06:17.520Z,9.599999
2023-05-14T01:07:17.669Z,9.52
2023-05-14T01:08:17.818Z,9.599999
2023-05-14T01:09:17.921Z,9.679999
2023-05-14T01:10:18.022Z,10.24
2023-05-14T01:11:18.172Z,10.32
2023-05-14T01:12:18.274Z,10.24
2023-05-14T01:13:18.436Z,10.48
2023-05-14T01:14:18.578Z,10.4
2023-05-14T01:15:18.734Z,10.32
2023-05-14T01:16:18.907Z,10.24
2023-05-14T01:17:19.032Z,10.32
2023-05-14T01:18:19.136Z,10.32
2023-05-14T01:19:19.283Z,10.32
2023-05-14T01:20:19.439Z,10.32
2023-05-14T01:21:19.592Z,10.4
2023-05-14T01:22:19.738Z,10.48
2023-05-14T01:23:19.891Z,10.639999
2023-05-14T01:24:20.046Z,10.719999
2023-05-14T01:25:20.196Z,10.719999
2023-05-14T01:26:20.345Z,10.639999
2023-05-14T01:27:20.502Z,10.48
2023-05-14T01:28:20.652Z,10.48
2023-05-14T01:29:20.753Z,10.32
2023-05-14T01:30:20.997Z,10.32
2023-05-14T01:31:21.065Z,10.4
2023-05-14T01:32:21.215Z,10.4
2023-05-14T01:33:21.357Z,10.4
2023-05-14T01:34:21.464Z,10.48
2023-05-14T01:35:21.613Z,10.4
2023-05-14T01:36:21.762Z,10.48
2023-05-14T01:37:21.921Z,10.639999
2023-05-14T01:38:22.083Z,10.48
2023-05-14T01:39:22.222Z,10.639999
2023-05-14T01:40:22.612Z,10.639999
2023-05-14T01:41:22.524Z,10.639999
2023-05-14T01:42:22.628Z,10.32
2023-05-14T01:43:22.826Z,10.32
2023-05-14T01:44:22.926Z,10.32
2023-05-14T01:45:23.082Z,10.32
2023-05-14T01:46:23.230Z,10.24
2023-05-14T01:47:23.387Z,10.08
2023-05-14T01:48:23.544Z,10.32
2023-05-14T01:49:23.688Z,10.24
2023-05-14T01:50:23.997Z,10.32
2023-05-14T01:51:23.950Z,10.48
2023-05-14T01:52:24.093Z,10.32
2023-05-14T01:53:24.242Z,10.48
2023-05-14T01:54:24.402Z,10.4
2023-05-14T01:55:24.549Z,10.4
2023-05-14T01:56:24.692Z,10.4
2023-05-14T01:57:24.850Z,10.48
2023-05-14T01:58:25.002Z,10.4
2023-05-14T01:59:25.177Z,10.48
2023-05-14T02:00:25.523Z,10.4
2023-05-14T02:01:25.462Z,10.4
2023-05-14T02:02:25.810Z,10.4
2023-05-14T02:03:25.768Z,10.32
2023-05-14T02:04:25.970Z,10.4
2023-05-14T02:05:26.064Z,10.719999
2023-05-14T02:06:26.166Z,10.639999
2023-05-14T02:07:26.365Z,10.639999
2023-05-14T02:08:26.463Z,10.639999
2023-05-14T02:09:26.589Z,10.639999
2023-05-14T02:10:26.777Z,10.32
2023-05-14T02:11:26.934Z,10.32
2023-05-14T02:12:27.040Z,10.4
2023-05-14T02:13:27.182Z,10.4
2023-05-14T02:14:27.305Z,10.32
2023-05-14T02:15:27.376Z,10.32
2023-05-14T02:16:27.543Z,10.32
2023-05-14T02:17:27.650Z,10.32
2023-05-14T02:18:27.759Z,10.32
2023-05-14T02:19:27.884Z,10.48
2023-05-14T02:20:27.984Z,10.48
2023-05-14T02:21:28.092Z,10.719999
2023-05-14T02:22:28.248Z,10.32
2023-05-14T02:23:38.212Z,10.24
2023-05-14T02:24:28.540Z,10.08
2023-05-14T02:25:28.704Z,10.08
2023-05-14T02:26:28.848Z,10.08
2023-05-14T02:27:29.004Z,10.08
2023-05-14T02:28:29.169Z,10.24
2023-05-14T02:29:29.306Z,10.08
2023-05-14T02:30:29.455Z,10.08
2023-05-14T02:31:29.628Z,10.24
2023-05-14T02:32:29.738Z,10.24
2023-05-14T02:33:29.929Z,10.24
2023-05-14T02:34:30.010Z,10.32
2023-05-14T02:35:30.170Z,10.32
2023-05-14T02:36:30.313Z,10.639999
2023-05-14T02:37:30.476Z,10.24
2023-05-14T02:38:30.621Z,10.08
2023-05-14T02:39:30.773Z,10.08
2023-05-14T02:40:30.932Z,10.08
2023-05-14T02:41:31.076Z,10
2023-05-14T02:42:31.176Z,9.92
2023-05-14T02:43:31.332Z,9.84
2023-05-14T02:44:31.491Z,10
2023-05-14T02:45:31.642Z,9.92
2023-05-14T02:46:31.811Z,9.92
2023-05-14T02:47:31.964Z,9.84
2023-05-14T02:48:32.091Z,9.92
2023-05-14T02:49:32.194Z,10
2023-05-14T02:50:32.340Z,10
2023-05-14T02:51:32.499Z,10.08
2023-05-14T02:52:32.644Z,10
2023-05-14T02:53:32.802Z,9.92
2023-05-14T02:54:32.944Z,9.84
2023-05-14T02:55:33.099Z,9.92
2023-05-14T02:56:33.254Z,9.92
2023-05-14T02:57:33.400Z,9.679999
2023-05-14T02:58:33.557Z,9.92
2023-05-14T02:59:33.705Z,9.92
2023-05-14T03:00:33.844Z,9.84
2023-05-14T03:01:33.963Z,9.92
2023-05-14T03:02:34.217Z,9.92
2023-05-14T03:03:34.268Z,10.08
2023-05-14T03:04:34.425Z,10
2023-05-14T03:05:34.573Z,10
2023-05-14T03:06:34.675Z,10.08
2023-05-14T03:07:34.819Z,10.08
2023-05-14T03:08:34.985Z,10
2023-05-14T03:09:37.442Z,10.08
2023-05-14T03:10:35.227Z,10
2023-05-14T03:11:35.395Z,10.24
2023-05-14T03:12:35.531Z,10.24
2023-05-14T03:13:35.678Z,10.32
2023-05-14T03:14:35.783Z,10.32
2023-05-14T03:15:35.937Z,10.32
2023-05-14T03:16:36.224Z,10.32
2023-05-14T03:17:36.330Z,10.48
2023-05-14T03:18:36.365Z,10.48
2023-05-14T03:19:36.498Z,10.48
2023-05-14T03:20:36.642Z,10.4
2023-05-14T03:21:36.793Z,10.4
2023-05-14T03:22:36.957Z,10.32
2023-05-14T03:23:37.096Z,10.4
2023-05-14T03:24:37.602Z,10.32
2023-05-14T03:25:37.722Z,10.4
2023-05-14T03:26:37.889Z,10.4
2023-05-14T03:27:37.973Z,10.32
2023-05-14T03:28:38.128Z,10.48
2023-05-14T03:29:38.158Z,10.4
2023-05-14T03:30:38.421Z,10.4
2023-05-14T03:31:38.265Z,10.4
2023-05-14T03:32:38.877Z,10.639999
2023-05-14T03:33:38.569Z,10.4
2023-05-14T03:34:38.720Z,10.4
2023-05-14T03:35:38.832Z,10.32
2023-05-14T03:36:39.292Z,10.24
2023-05-14T03:37:39.390Z,10.24
2023-05-14T03:38:39.540Z,10
2023-05-14T03:39:39.692Z,10.08
2023-05-14T03:40:39.868Z,10.08
2023-05-14T03:41:39.992Z,10.08
2023-05-14T03:42:40.151Z,10.08
2023-05-14T03:43:39.935Z,10.08
2023-05-14T03:44:40.085Z,9.92
2023-05-14T03:45:40.232Z,10.08
2023-05-14T03:46:40.333Z,10.08
2023-05-14T03:47:40.512Z,10.08
2023-05-14T03:48:40.664Z,10.32
2023-05-14T03:49:40.796Z,10.08
2023-05-14T03:50:40.944Z,10.08
2023-05-14T03:51:41.098Z,10.08
2023-05-14T03:52:41.258Z,10.08
2023-05-14T03:53:41.422Z,10.24
2023-05-14T03:54:41.508Z,10
2023-05-14T03:55:41.650Z,10
2023-05-14T03:56:41.802Z,10.08
2023-05-14T03:57:41.957Z,10
2023-05-14T03:58:42.111Z,10
2023-05-14T03:59:42.260Z,10
2023-05-14T04:00:42.428Z,10.08
2023-05-14T04:01:42.560Z,10.24
2023-05-14T04:02:42.819Z,10.32
2023-05-14T04:03:42.911Z,10.08
2023-05-14T04:04:43.003Z,10.24
2023-05-14T04:05:43.127Z,10.08
2023-05-14T04:06:43.274Z,10.08
2023-05-14T04:07:43.422Z,10.24
2023-05-14T04:08:43.580Z,10.24
2023-05-14T04:09:43.744Z,10.32
2023-05-14T04:10:43.884Z,10.32
2023-05-14T04:11:44.041Z,10.32
2023-05-14T04:12:44.185Z,10.4
2023-05-14T04:13:44.337Z,10.4
2023-05-14T04:14:44.488Z,10.48
2023-05-14T04:15:44.636Z,10.48
2023-05-14T04:16:44.755Z,10.48
2023-05-14T04:17:44.890Z,10.48
2023-05-14T04:18:45.083Z,10.719999
2023-05-14T04:19:45.196Z,10.8
2023-05-14T04:20:45.350Z,11.04
2023-05-14T04:21:45.504Z,11.12
2023-05-14T04:22:45.647Z,11.2
2023-05-14T04:23:45.802Z,11.12
2023-05-14T04:24:45.987Z,11.2
2023-05-14T04:25:46.114Z,11.2
2023-05-14T04:26:46.254Z,11.2
2023-05-14T04:27:46.405Z,11.28
2023-05-14T04:28:46.564Z,11.44
2023-05-14T04:29:46.709Z,11.44
2023-05-14T04:30:46.859Z,11.12
2023-05-14T04:31:47.031Z,10.8
2023-05-14T04:32:47.153Z,10.639999
2023-05-14T04:33:47.262Z,10.639999
2023-05-14T04:34:47.422Z,10.48
2023-05-14T04:35:47.567Z,10.48
2023-05-14T04:36:47.670Z,10.48
2023-05-14T04:37:47.832Z,10.8
2023-05-14T04:38:47.969Z,11.12
2023-05-14T04:39:48.125Z,11.28
2023-05-14T04:40:48.234Z,11.44
2023-05-14T04:41:48.384Z,11.52
2023-05-14T04:42:48.536Z,11.52
2023-05-14T04:43:48.679Z,11.679999
2023-05-14T04:44:48.831Z,11.84
2023-05-14T04:45:49.007Z,11.679999
2023-05-14T04:46:49.149Z,11.679999
2023-05-14T04:47:49.315Z,11.679999
2023-05-14T04:48:49.443Z,11.599999
2023-05-14T04:49:49.549Z,11.599999
2023-05-14T04:50:49.695Z,11.84
2023-05-14T04:51:49.846Z,11.92
2023-05-14T04:52:50.001Z,11.92
2023-05-14T04:53:50.102Z,12
2023-05-14T04:54:50.336Z,12
2023-05-14T04:55:50.397Z,12.32
2023-05-14T04:56:50.503Z,12.4
2023-05-14T04:57:50.659Z,12.24
2023-05-14T04:58:50.809Z,12
2023-05-14T04:59:50.970Z,12.32
2023-05-14T05:00:51.117Z,12.32
2023-05-14T05:01:51.221Z,12.24
2023-05-14T05:02:51.383Z,12
2023-05-14T05:03:51.504Z,12.08
2023-05-14T05:04:51.622Z,12
2023-05-14T05:05:51.723Z,12.08
2023-05-14T05:06:51.871Z,12.08
2023-05-14T05:07:52.042Z,12.08
2023-05-14T05:08:52.176Z,12.32
2023-05-14T05:09:52.324Z,12.4
2023-05-14T05:10:52.436Z,12.48
2023-05-14T05:11:52.596Z,12.639999
2023-05-14T05:12:52.734Z,12.48
2023-05-14T05:13:52.897Z,12.719999
2023-05-14T05:14:53.052Z,12.4
2023-05-14T05:15:53.265Z,12
2023-05-14T05:16:53.305Z,12.08
2023-05-14T05:17:53.477Z,12.32
2023-05-14T05:18:53.645Z,12.32
2023-05-14T05:19:53.700Z,12.639999
2023-05-14T05:20:53.853Z,12.799999
2023-05-14T05:21:54.214Z,12.639999
2023-05-14T05:23:54.270Z,12.88
2023-05-14T05:24:54.377Z,12.88
2023-05-14T05:25:54.506Z,12.799999
2023-05-14T05:26:54.664Z,13.12
2023-05-14T05:27:54.811Z,13.599999
2023-05-14T05:28:54.973Z,13.52
2023-05-14T05:29:55.110Z,13.52
2023-05-14T05:30:55.316Z,13.12
2023-05-14T05:31:55.535Z,13.04
2023-05-14T05:32:55.556Z,13.44
2023-05-14T05:33:55.681Z,13.12
2023-05-14T05:34:55.778Z,13.44
2023-05-14T05:35:55.896Z,13.44
2023-05-14T05:36:55.984Z,13.44
2023-05-14T05:37:56.124Z,13.52
2023-05-14T05:38:56.283Z,13.92
2023-05-14T05:39:56.431Z,14.4
2023-05-14T05:40:56.588Z,14
2023-05-14T05:41:56.732Z,13.599999
2023-05-14T05:42:56.884Z,13.84
2023-05-14T05:43:57.051Z,13.92
2023-05-14T05:44:57.187Z,13.92
2023-05-14T05:45:57.290Z,13.679999
2023-05-14T05:46:57.636Z,13.599999
2023-05-14T05:47:57.622Z,13.92
2023-05-14T05:48:57.784Z,13.92
2023-05-14T05:49:57.903Z,13.679999
2023-05-14T05:50:58.048Z,14.08
2023-05-14T05:51:58.218Z,14.08
2023-05-14T05:52:58.351Z,13.92
2023-05-14T05:53:58.503Z,14.08
2023-05-14T05:54:58.650Z,14.48
2023-05-14T05:55:58.844Z,14.88
2023-05-14T05:56:58.961Z,14.88
2023-05-14T05:57:59.114Z,15.28
2023-05-14T05:58:59.277Z,15.04
2023-05-14T05:59:59.362Z,15.2
2023-05-14T06:00:59.517Z,14.799999
2023-05-14T06:01:59.688Z,14.719999
2023-05-14T06:02:59.829Z,14.799999
2023-05-14T06:03:59.971Z,14.719999
2023-05-14T06:05:00.192Z,14.639999
2023-05-14T06:06:00.231Z,14.719999
2023-05-14T06:07:00.384Z,14.639999
2023-05-14T06:08:00.527Z,14.799999
2023-05-14T06:09:00.688Z,15.04
2023-05-14T06:10:00.829Z,15.04
2023-05-14T06:11:01.049Z,15.44
2023-05-14T06:12:01.165Z,15.28
2023-05-14T06:13:01.288Z,15.28
2023-05-14T06:14:01.439Z,15.52
2023-05-14T06:15:01.592Z,15.599999
2023-05-14T06:16:01.718Z,15.04
2023-05-14T06:17:01.898Z,15.04
2023-05-14T06:18:02.050Z,15.2
2023-05-14T06:19:02.170Z,15.52
2023-05-14T06:20:02.300Z,16.24
2023-05-14T06:21:02.478Z,16
2023-05-14T06:22:02.623Z,16.88
2023-05-14T06:23:02.775Z,15.92
2023-05-14T06:24:02.907Z,15.679999
2023-05-14T06:25:03.057Z,15.52
2023-05-14T06:26:03.173Z,15.839999
2023-05-14T06:27:03.311Z,15.679999
2023-05-14T06:28:03.419Z,15.839999
2023-05-14T06:29:03.572Z,16.32
2023-05-14T06:30:03.719Z,16.24
2023-05-14T06:31:03.824Z,16.48
2023-05-14T06:32:04.123Z,16.4
2023-05-14T06:33:04.197Z,16.32
2023-05-14T06:34:04.236Z,16.08
2023-05-14T06:35:04.359Z,16
2023-05-14T06:36:04.530Z,16.32
2023-05-14T06:37:04.682Z,16.48
2023-05-14T06:38:04.851Z,17.04
2023-05-14T06:39:04.983Z,17.12
2023-05-14T06:40:05.134Z,17.2
2023-05-14T06:41:05.238Z,17.2
2023-05-14T06:42:05.384Z,16.64
2023-05-14T06:43:05.539Z,17.04
2023-05-14T06:44:05.692Z,17.2
2023-05-14T06:45:05.842Z,17.52
2023-05-14T06:46:05.938Z,18.48
2023-05-14T06:47:06.092Z,17.92
2023-05-14T06:48:06.259Z,18.24
2023-05-14T06:49:06.424Z,17.76
2023-05-14T06:50:07.161Z,16.72
2023-05-14T06:51:06.699Z,16.8
2023-05-14T06:52:06.805Z,17.44
2023-05-14T06:53:06.950Z,16.72
2023-05-14T06:54:07.116Z,16.88
2023-05-14T06:55:07.256Z,16.8
2023-05-14T06:56:07.414Z,17.2
2023-05-14T06:57:07.572Z,17.04
2023-05-14T06:58:07.720Z,18.64
2023-05-14T06:59:07.863Z,17.68
2023-05-14T07:00:07.965Z,16.88
2023-05-14T07:01:08.129Z,17.12
2023-05-14T07:02:08.264Z,17.52
2023-05-14T07:03:08.467Z,17.92
2023-05-14T07:04:08.539Z,18.72
2023-05-14T07:05:08.671Z,18.64
2023-05-14T07:06:08.830Z,18
2023-05-14T07:07:08.975Z,17.52
2023-05-14T07:08:09.139Z,17.2
2023-05-14T07:09:09.277Z,18.4
2023-05-14T07:10:09.428Z,19.04
2023-05-14T07:11:09.534Z,18.4
2023-05-14T07:12:09.695Z,17.44
2023-05-14T07:13:09.838Z,18.72
2023-05-14T07:14:09.995Z,19.12
2023-05-14T07:15:10.140Z,19.04
2023-05-14T07:16:10.297Z,18.32
2023-05-14T07:17:10.439Z,19.12
2023-05-14T07:18:10.582Z,19.44
2023-05-14T07:19:10.750Z,19.2
2023-05-14T07:20:10.851Z,19.04
2023-05-14T07:21:11.002Z,19.04
2023-05-14T07:22:11.158Z,19.28
2023-05-14T07:23:11.309Z,20.8
2023-05-14T07:24:11.427Z,19.52
2023-05-14T07:25:11.556Z,18.64
2023-05-14T07:26:11.710Z,18.4
2023-05-14T07:27:11.857Z,18.48
2023-05-14T07:28:12.012Z,18.08
2023-05-14T07:29:12.173Z,18.64
2023-05-14T07:30:12.317Z,19.44
2023-05-14T07:31:12.490Z,19.04
2023-05-14T07:32:14.769Z,18.8
2023-05-14T07:33:12.772Z,18.32
2023-05-14T07:34:12.933Z,18.24
2023-05-14T07:35:13.071Z,17.76
2023-05-14T07:36:13.227Z,18.48
2023-05-14T07:37:13.380Z,18.64
2023-05-14T07:38:13.531Z,18.32
2023-05-14T07:39:13.688Z,18.24
2023-05-14T07:40:13.784Z,18.72
2023-05-14T07:41:13.896Z,18.64
2023-05-14T07:42:22.041Z,18.8
2023-05-14T07:43:14.518Z,18.72
2023-05-14T07:44:14.714Z,19.04
2023-05-14T07:45:14.803Z,19.04
2023-05-14T07:46:15.068Z,18.4
2023-05-14T07:47:15.197Z,19.2
2023-05-14T07:48:15.296Z,18.8
2023-05-14T07:49:15.433Z,18.88
2023-05-14T07:50:15.573Z,18.72
2023-05-14T07:51:15.398Z,18.72
2023-05-14T07:52:15.554Z,18.8
2023-05-14T07:53:15.708Z,18.72
2023-05-14T07:54:16.127Z,18.72
2023-05-14T07:55:16.277Z,18.72
2023-05-14T07:56:16.439Z,18.48
2023-05-14T07:57:16.213Z,18.88
2023-05-14T07:58:16.362Z,18.8
2023-05-14T07:59:16.514Z,19.52
2023-05-14T08:00:16.666Z,19.12
2023-05-14T08:01:16.821Z,19.52
2023-05-14T08:02:17.122Z,18.72
2023-05-14T08:03:17.156Z,18.4
2023-05-14T08:04:17.258Z,18.32
2023-05-14T08:05:17.376Z,17.92
2023-05-14T08:06:17.524Z,19.04
2023-05-14T08:07:17.697Z,18.88
2023-05-14T08:08:17.832Z,18.48
2023-05-14T08:09:17.980Z,18.48
2023-05-14T08:10:18.131Z,18.4
2023-05-14T08:11:18.309Z,17.92
2023-05-14T08:12:18.434Z,18.4
2023-05-14T08:13:18.589Z,18.48
2023-05-14T08:14:18.694Z,18.48
2023-05-14T08:15:18.838Z,19.44
2023-05-14T08:16:19.008Z,19.52
2023-05-14T08:17:19.216Z,18.8
2023-05-14T08:18:19.310Z,18.64
2023-05-14T08:19:19.556Z,18.8
2023-05-14T08:20:19.568Z,18.64
2023-05-14T08:21:19.712Z,18.4
2023-05-14T08:22:19.873Z,18.88
2023-05-14T08:23:20.005Z,19.2
2023-05-14T08:24:20.157Z,19.12
2023-05-14T08:25:20.265Z,18.72
2023-05-14T08:26:20.450Z,18.8
2023-05-14T08:27:20.567Z,19.04
2023-05-14T08:28:20.718Z,19.68
2023-05-14T08:29:20.877Z,18.72
2023-05-14T08:30:21.140Z,18.88
2023-05-14T08:31:21.185Z,19.12
2023-05-14T08:32:23.654Z,18.88
2023-05-14T08:33:21.431Z,18.88
2023-05-14T08:34:21.594Z,18.88
2023-05-14T08:35:21.728Z,19.28
2023-05-14T08:36:21.896Z,19.44
2023-05-14T08:37:22.032Z,19.04
2023-05-14T08:38:22.139Z,20.8
2023-05-14T08:39:22.285Z,19.12
2023-05-14T08:40:22.581Z,19.76
2023-05-14T08:41:22.541Z,19.52
2023-05-14T08:42:22.770Z,19.12
2023-05-14T08:43:22.844Z,18.48
2023-05-14T08:44:22.994Z,19.28
2023-05-14T08:45:23.148Z,19.2
2023-05-14T08:46:23.261Z,18.64
2023-05-14T08:47:23.348Z,18.32
2023-05-14T08:48:23.527Z,19.28
2023-05-14T08:49:23.606Z,18.8
2023-05-14T08:50:23.926Z,18.64
2023-05-14T08:51:23.908Z,19.28
2023-05-14T08:52:24.059Z,19.52
2023-05-14T08:53:24.221Z,19.68
2023-05-14T08:54:24.315Z,20
2023-05-14T08:55:24.468Z,20.64
2023-05-14T08:56:24.617Z,19.68
2023-05-14T08:57:24.722Z,19.52
2023-05-14T08:58:24.863Z,19.44
2023-05-14T08:59:25.037Z,18.48
2023-05-14T09:00:25.413Z,18.48
2023-05-14T09:01:25.288Z,19.04
2023-05-14T09:02:25.525Z,20.08
2023-05-14T09:03:25.611Z,20
2023-05-14T09:04:25.727Z,19.52
2023-05-14T09:05:25.880Z,19.6
2023-05-14T09:06:26.033Z,20
2023-05-14T09:07:26.191Z,20.08
2023-05-14T09:08:26.328Z,19.6
2023-05-14T09:09:26.488Z,19.52
2023-05-14T09:10:26.965Z,19.44
2023-05-14T09:11:26.787Z,19.68
2023-05-14T09:12:26.956Z,19.76
2023-05-14T09:13:28.275Z,20.72
2023-05-14T09:14:27.259Z,20.24
2023-05-14T09:15:27.347Z,20.72
2023-05-14T09:16:27.508Z,20.48
2023-05-14T09:17:27.664Z,20.72
2023-05-14T09:18:27.729Z,19.52
2023-05-14T09:19:27.851Z,20
2023-05-14T09:20:28.305Z,19.68
2023-05-14T09:21:28.151Z,19.68
2023-05-14T09:22:28.305Z,20
2023-05-14T09:23:28.465Z,20.8
2023-05-14T09:24:28.614Z,20.48
2023-05-14T09:25:28.716Z,19.76
2023-05-14T09:26:29.470Z,20.24
2023-05-14T09:27:28.970Z,19.92
2023-05-14T09:28:29.124Z,19.68
2023-05-14T09:29:29.790Z,20.32
2023-05-14T09:30:29.424Z,21.52
2023-05-14T09:31:29.563Z,20.32
2023-05-14T09:32:29.719Z,20.24
2023-05-14T09:33:29.856Z,20.64
2023-05-14T09:34:29.974Z,21.04
2023-05-14T09:35:30.127Z,21.04
2023-05-14T09:36:30.232Z,20.4
2023-05-14T09:37:30.377Z,21.28
2023-05-14T09:38:30.532Z,21.52
2023-05-14T09:39:30.635Z,20.48
2023-05-14T09:40:30.784Z,20.08
2023-05-14T09:41:30.940Z,20.4
2023-05-14T09:42:31.091Z,22.24
2023-05-14T09:43:31.244Z,21.6
2023-05-14T09:44:31.407Z,20.4
2023-05-14T09:45:31.510Z,21.12
2023-05-14T09:46:31.606Z,21.12
2023-05-14T09:47:31.800Z,20.4
2023-05-14T09:48:31.929Z,20.4
2023-05-14T09:49:32.060Z,20.4
2023-05-14T09:50:32.224Z,20.72
2023-05-14T09:51:32.353Z,21.84
2023-05-14T09:52:32.504Z,21.52
2023-05-14T09:53:32.655Z,21.44
2023-05-14T09:54:32.831Z,22.08
2023-05-14T09:55:32.963Z,20.88
2023-05-14T09:56:33.113Z,20.4
2023-05-14T09:57:33.260Z,21.84
2023-05-14T09:58:33.421Z,22.88
2023-05-14T09:59:33.832Z,22.8
2023-05-14T10:00:33.673Z,23.68
2023-05-14T10:01:33.837Z,24.8
2023-05-14T10:02:34.045Z,22.64
2023-05-14T10:03:34.127Z,22.4
2023-05-14T10:04:34.303Z,22.24
2023-05-14T10:05:34.382Z,22.4
2023-05-14T10:06:34.526Z,22.64
2023-05-14T10:07:34.630Z,21.68
2023-05-14T10:08:34.742Z,21.28
2023-05-14T10:09:34.881Z,21.2
2023-05-14T10:10:35.035Z,23.04
2023-05-14T10:11:35.137Z,21.68
2023-05-14T10:12:35.290Z,21.44
2023-05-14T10:13:35.389Z,21.52
2023-05-14T10:14:35.542Z,21.28
2023-05-14T10:15:35.702Z,20.64
2023-05-14T10:16:35.825Z,20.64
2023-05-14T10:17:35.965Z,20.64
2023-05-14T10:18:36.146Z,20.8
2023-05-14T10:19:36.205Z,20.64
2023-05-14T10:20:36.305Z,20.4
2023-05-14T10:21:36.418Z,20.08
2023-05-14T10:22:36.563Z,20.8
2023-05-14T10:23:36.710Z,20.72
2023-05-14T10:24:36.863Z,20.64
2023-05-14T10:25:37.016Z,21.6
2023-05-14T10:26:37.164Z,21.84
2023-05-14T10:27:37.321Z,22.4
2023-05-14T10:28:37.467Z,23.12
2023-05-14T10:29:37.693Z,22.72
2023-05-14T10:30:37.721Z,22.4
2023-05-14T10:31:37.960Z,23.52
2023-05-14T10:32:38.021Z,24.32
2023-05-14T10:33:38.122Z,24.48
2023-05-14T10:34:38.298Z,26.24
2023-05-14T10:35:38.426Z,23.92
2023-05-14T10:36:38.587Z,23.44
2023-05-14T10:37:38.746Z,22
2023-05-14T10:38:38.882Z,23.84
2023-05-14T10:39:39.034Z,25.84
2023-05-14T10:40:39.198Z,25.2
2023-05-14T10:41:39.339Z,23.2
2023-05-14T10:42:39.501Z,22.08
2023-05-14T10:43:39.636Z,22.32
2023-05-14T10:44:39.761Z,21.12
2023-05-14T10:45:39.895Z,22.64
2023-05-14T10:46:40.119Z,21.84
2023-05-14T10:47:40.186Z,21.6
2023-05-14T10:48:40.299Z,21.2
2023-05-14T10:49:43.690Z,21.12
2023-05-14T10:50:40.615Z,22.48
2023-05-14T10:51:40.811Z,23.44
2023-05-14T10:52:40.907Z,22.64
2023-05-14T10:53:41.061Z,22.64
2023-05-14T10:54:41.162Z,23.12
2023-05-14T10:55:41.312Z,22.88
2023-05-14T10:56:41.467Z,24.48
2023-05-14T10:57:41.613Z,23.2
2023-05-14T10:58:41.772Z,23.04
2023-05-14T10:59:41.924Z,23.92
2023-05-14T11:00:42.078Z,22.4
2023-05-14T11:01:42.283Z,21.84
2023-05-14T11:02:42.397Z,22.88
2023-05-14T11:03:42.687Z,22.8
2023-05-14T11:04:42.679Z,23.28
2023-05-14T11:05:42.780Z,23.52
2023-05-14T11:06:42.931Z,22.48
2023-05-14T11:07:43.035Z,22.24
2023-05-14T11:08:43.183Z,22.8
2023-05-14T11:09:43.345Z,24.48
2023-05-14T11:10:43.492Z,25.44
2023-05-14T11:11:43.644Z,25.2
2023-05-14T11:12:43.795Z,25.04
2023-05-14T11:13:43.954Z,26.32
2023-05-14T11:14:44.053Z,22.72
2023-05-14T11:15:44.210Z,24
2023-05-14T11:16:44.331Z,24.08
2023-05-14T11:17:44.539Z,22.64
2023-05-14T11:18:44.582Z,24.48
2023-05-14T11:19:44.715Z,25.28
2023-05-14T11:20:44.859Z,26.4
2023-05-14T11:21:45.040Z,26.08
2023-05-14T11:22:45.163Z,24
2023-05-14T11:23:45.269Z,24.48
2023-05-14T11:24:45.365Z,24.08
2023-05-14T11:25:45.558Z,23.12
2023-05-14T11:26:45.674Z,23.2
2023-05-14T11:27:45.824Z,23.44
2023-05-14T11:28:45.981Z,22
2023-05-14T11:29:46.144Z,22.64
2023-05-14T11:30:46.286Z,22.4
2023-05-14T11:31:46.497Z,21.6
2023-05-14T11:32:46.616Z,21.44
2023-05-14T11:33:46.730Z,21.52
2023-05-14T11:34:46.882Z,21.6
2023-05-14T11:35:47.034Z,22.24
2023-05-14T11:36:47.138Z,22.72
2023-05-14T11:37:47.243Z,22.64
2023-05-14T11:38:47.406Z,22.4
2023-05-14T11:39:47.492Z,22.8
2023-05-14T11:40:47.595Z,23.04
2023-05-14T11:41:47.695Z,21.84
2023-05-14T11:42:47.848Z,22.64
2023-05-14T11:43:47.998Z,22.88
2023-05-14T11:44:48.155Z,22.08
2023-05-14T11:45:48.316Z,22.08
2023-05-14T11:46:48.453Z,22.4
2023-05-14T11:47:48.646Z,23.04
2023-05-14T11:48:48.716Z,23.84
2023-05-14T11:49:48.865Z,25.52
2023-05-14T11:50:49.015Z,26.64
2023-05-14T11:51:49.178Z,25.84
2023-05-14T11:52:49.349Z,24.8
2023-05-14T11:53:49.466Z,24.8
2023-05-14T11:54:49.645Z,26.24
2023-05-14T11:55:49.765Z,25.84
2023-05-14T11:56:49.916Z,22.24
2023-05-14T11:57:50.040Z,21.12
2023-05-14T11:58:50.181Z,22
2023-05-14T11:59:50.319Z,21.6
2023-05-14T12:00:50.435Z,21.28
2023-05-14T12:01:50.791Z,21.44
2023-05-14T12:02:50.768Z,21.2
2023-05-14T12:03:50.964Z,20.48
2023-05-14T12:04:51.090Z,20.88
2023-05-14T12:05:51.180Z,20.8
2023-05-14T12:06:51.283Z,20.64
2023-05-14T12:07:51.436Z,21.2
2023-05-14T12:08:51.542Z,21.28
2023-05-14T12:09:51.737Z,20.4
2023-05-14T12:10:51.859Z,20.32
2023-05-14T12:11:51.947Z,21.44
2023-05-14T12:12:52.091Z,21.68
2023-05-14T12:13:52.195Z,21.84
2023-05-14T12:14:52.350Z,21.52
2023-05-14T12:15:52.528Z,21.92
2023-05-14T12:16:52.663Z,22.88
2023-05-14T12:17:52.873Z,22.64
2023-05-14T12:18:52.988Z,22.32
2023-05-14T12:19:53.107Z,21.68
2023-05-14T12:20:53.255Z,21.12
2023-05-14T12:21:53.403Z,20.72
2023-05-14T12:22:53.509Z,21.6
2023-05-14T12:23:53.660Z,20.64
2023-05-14T12:24:53.822Z,20.24
2023-05-14T12:25:53.921Z,20
2023-05-14T12:26:54.017Z,20.8
2023-05-14T12:27:54.168Z,20.64
2023-05-14T12:28:54.319Z,20.88
2023-05-14T12:29:54.482Z,20.48
2023-05-14T12:30:54.620Z,20.08
2023-05-14T12:31:54.748Z,19.92
2023-05-14T12:32:54.916Z,19.68
2023-05-14T12:33:55.031Z,19.04
2023-05-14T12:34:55.181Z,19.44
2023-05-14T12:35:55.285Z,20.4
2023-05-14T12:36:55.438Z,20.4
2023-05-14T12:37:55.542Z,20.08
2023-05-14T12:38:55.693Z,20.08
2023-05-14T12:39:55.796Z,19.92
2023-05-14T12:40:55.938Z,19.68
2023-05-14T12:41:56.094Z,20.4
2023-05-14T12:42:56.926Z,21.04
2023-05-14T12:43:56.407Z,21.28
2023-05-14T12:44:56.546Z,21.28
2023-05-14T12:45:56.702Z,21.2
2023-05-14T12:46:56.828Z,21.44
2023-05-14T12:47:57.002Z,20.4
2023-05-14T12:48:57.107Z,19.68
2023-05-14T12:49:57.267Z,19.76
2023-05-14T12:50:57.405Z,20
2023-05-14T12:52:08.275Z,20.64
2023-05-14T12:52:57.721Z,20
2023-05-14T12:53:57.862Z,19.52
2023-05-14T12:54:58.014Z,19.52
2023-05-14T12:55:58.162Z,19.68
2023-05-14T12:56:58.316Z,19.76
2023-05-14T12:57:58.428Z,19.6
2023-05-14T12:58:58.521Z,19.52
2023-05-14T12:59:58.675Z,20